Time;durP1;ratioP1;P1;durP2;ratioP2;P2;SDS_P1;SDS_P2;PMS_P1;PMS_P2;Temp;Humidity;BMP_temperature;BMP_pressure;BME280_temperature;BME280_humidity;BME280_pressure;Samples;Min_cycle;Max_cycle;Signal;HPM_P1;HPM_P2
2022/01/05 00:00:14;;;;;;;1.60;1.50;;;3.00;99.90;;;;;;6224693;23;20024;-84
2022/01/05 00:03:04;;;;;;;1.58;1.48;;;3.00;99.90;;;;;;6245544;22;20320;-83
2022/01/05 00:05:52;;;;;;;1.40;1.30;;;3.00;99.90;;;;;;6182142;23;20039;-83
2022/01/05 00:08:39;;;;;;;2.55;1.20;;;3.00;99.90;;;;;;6244890;23;20034;-85
2022/01/05 00:11:27;;;;;;;1.30;1.20;;;3.10;99.90;;;;;;6224758;22;20419;-85
2022/01/05 00:14:17;;;;;;;1.20;1.10;;;3.10;99.90;;;;;;6243731;23;20024;-84
2022/01/05 00:17:07;;;;;;;1.40;1.30;;;3.10;99.90;;;;;;6201527;23;20028;-82
2022/01/05 00:19:55;;;;;;;1.10;1.10;;;3.10;99.90;;;;;;6222980;23;20416;-84
2022/01/05 00:22:42;;;;;;;1.20;1.10;;;3.10;99.90;;;;;;6222629;23;20398;-83
2022/01/05 00:25:32;;;;;;;1.48;1.33;;;3.10;99.90;;;;;;6200274;23;20050;-83
2022/01/05 00:28:19;;;;;;;1.30;1.20;;;3.10;99.90;;;;;;6221229;23;20086;-83
2022/01/05 00:31:07;;;;;;;1.67;1.20;;;3.10;99.90;;;;;;6219977;23;20028;-83
2022/01/05 00:33:55;;;;;;;2.30;1.02;;;3.10;99.90;;;;;;6235072;23;20032;-85
2022/01/05 00:36:42;;;;;;;1.63;1.30;;;3.10;99.90;;;;;;6219506;23;20028;-82
2022/01/05 00:39:30;;;;;;;1.85;1.30;;;3.10;99.90;;;;;;6197725;23;20055;-83
2022/01/05 00:42:21;;;;;;;1.13;1.13;;;3.10;99.90;;;;;;6213966;23;20035;-83
2022/01/05 00:45:08;;;;;;;1.42;1.33;;;3.10;99.90;;;;;;6193006;23;20328;-83
2022/01/05 00:47:56;;;;;;;1.50;1.20;;;3.10;99.90;;;;;;6205066;23;20020;-84
2022/01/05 00:50:43;;;;;;;0.90;0.90;;;3.10;99.90;;;;;;6213194;23;20391;-84
2022/01/05 00:53:31;;;;;;;2.15;0.90;;;3.10;99.90;;;;;;6201024;23;20086;-84
2022/01/05 00:56:18;;;;;;;0.85;0.85;;;3.20;99.90;;;;;;6222605;23;20051;-86
2022/01/05 00:59:06;;;;;;;0.75;0.70;;;3.20;99.90;;;;;;6241946;23;20023;-83
2022/01/05 01:01:53;;;;;;;0.80;0.80;;;3.20;99.90;;;;;;6199388;23;20028;-83
2022/01/05 01:04:41;;;;;;;0.70;0.70;;;3.20;99.90;;;;;;6223088;23;20028;-83
2022/01/05 01:07:28;;;;;;;0.70;0.70;;;3.30;99.90;;;;;;6202337;23;20020;-82
2022/01/05 01:10:15;;;;;;;0.88;0.88;;;3.20;99.90;;;;;;6218799;23;20028;-84
2022/01/05 01:13:03;;;;;;;0.80;0.80;;;3.30;99.90;;;;;;6221561;23;20075;-83
2022/01/05 01:15:51;;;;;;;0.80;0.80;;;3.30;99.90;;;;;;6220024;23;20094;-84
2022/01/05 01:18:41;;;;;;;0.82;0.82;;;3.30;99.90;;;;;;6221310;23;20106;-83
2022/01/05 01:21:29;;;;;;;1.15;0.90;;;3.30;99.90;;;;;;6221057;23;20032;-84
2022/01/05 01:24:16;;;;;;;0.70;0.70;;;3.40;99.90;;;;;;6241180;23;20031;-84
2022/01/05 01:27:04;;;;;;;1.65;0.70;;;3.30;99.90;;;;;;6198614;23;20431;-84
2022/01/05 01:29:51;;;;;;;1.60;0.70;;;3.40;99.90;;;;;;6198124;23;20028;-85
2022/01/05 01:32:39;;;;;;;0.90;0.90;;;3.40;99.90;;;;;;6219294;23;20364;-84
2022/01/05 01:35:27;;;;;;;1.50;1.05;;;3.40;99.90;;;;;;6200059;23;20020;-82
2022/01/05 01:38:14;;;;;;;1.15;0.82;;;3.40;99.90;;;;;;6241849;23;20094;-85
2022/01/05 01:41:03;;;;;;;0.80;0.80;;;3.40;99.90;;;;;;6244684;22;20028;-83
2022/01/05 01:43:50;;;;;;;1.33;1.23;;;3.40;99.90;;;;;;6220890;23;20046;-84
2022/01/05 01:46:37;;;;;;;1.10;1.00;;;3.40;99.90;;;;;;6243812;23;20024;-84
2022/01/05 01:49:24;;;;;;;1.13;1.10;;;3.50;99.90;;;;;;6193314;23;20025;-88
2022/01/05 01:52:14;;;;;;;1.25;0.90;;;3.40;99.90;;;;;;6221226;23;20024;-85
2022/01/05 01:55:02;;;;;;;0.90;0.90;;;3.50;99.90;;;;;;6180427;23;20056;-84
2022/01/05 01:57:50;;;;;;;1.10;1.00;;;3.50;99.90;;;;;;6220053;23;20082;-85
2022/01/05 02:00:37;;;;;;;1.08;1.00;;;3.50;99.90;;;;;;6221404;23;20124;-84
2022/01/05 02:03:25;;;;;;;1.17;0.85;;;3.50;99.90;;;;;;6198712;23;20062;-82
2022/01/05 02:06:12;;;;;;;1.15;1.02;;;3.60;99.90;;;;;;6199117;23;20035;-83
2022/01/05 02:09:00;;;;;;;0.90;0.90;;;3.70;99.90;;;;;;6242463;23;20074;-83
2022/01/05 02:11:47;;;;;;;1.10;1.02;;;3.60;99.90;;;;;;6242894;22;20093;-84
2022/01/05 02:14:38;;;;;;;1.23;0.93;;;3.70;99.90;;;;;;6241627;23;20035;-83
2022/01/05 02:17:43;;;;;;;1.58;1.23;;;3.60;99.90;;;;;;6220972;23;20109;-83
2022/01/05 02:20:31;;;;;;;1.60;1.02;;;3.60;99.90;;;;;;6222338;23;20039;-82
2022/01/05 02:23:19;;;;;;;1.30;1.20;;;3.60;99.90;;;;;;6241715;23;20481;-85
2022/01/05 02:26:10;;;;;;;1.17;1.00;;;3.70;99.90;;;;;;6200330;23;20032;-83
2022/01/05 02:28:57;;;;;;;1.10;1.10;;;3.70;99.90;;;;;;6220424;23;20024;-84
2022/01/05 02:31:44;;;;;;;1.23;1.23;;;3.60;99.90;;;;;;6200518;23;20032;-82
2022/01/05 02:34:33;;;;;;;1.20;1.10;;;3.70;99.90;;;;;;6199517;23;20307;-84
2022/01/05 02:37:20;;;;;;;1.10;1.00;;;3.70;99.90;;;;;;6201684;23;20102;-83
2022/01/05 02:40:10;;;;;;;2.17;1.15;;;3.70;99.90;;;;;;6219758;23;20131;-84
2022/01/05 02:42:59;;;;;;;1.30;1.20;;;3.70;99.90;;;;;;6243152;22;20024;-83
2022/01/05 02:45:47;;;;;;;1.63;1.10;;;3.70;99.90;;;;;;6222433;22;20086;-87
2022/01/05 02:48:34;;;;;;;1.38;1.13;;;3.70;99.90;;;;;;6222619;23;20443;-82
2022/01/05 02:51:22;;;;;;;0.90;0.90;;;3.70;99.90;;;;;;6243287;23;20052;-85
2022/01/05 02:54:10;;;;;;;0.80;0.80;;;3.70;99.90;;;;;;6223154;23;20027;-82
2022/01/05 02:56:57;;;;;;;3.20;0.93;;;3.70;99.90;;;;;;6222644;23;20020;-82
2022/01/05 02:59:45;;;;;;;0.80;0.80;;;3.70;99.90;;;;;;6223299;23;20392;-82
2022/01/05 03:02:32;;;;;;;1.15;0.90;;;3.70;99.90;;;;;;6203380;23;20379;-85
2022/01/05 03:05:20;;;;;;;0.80;0.80;;;3.80;99.90;;;;;;6225013;22;20662;-83
2022/01/05 03:08:08;;;;;;;1.13;0.90;;;3.70;99.90;;;;;;6222544;23;20074;-85
2022/01/05 03:10:56;;;;;;;0.80;0.80;;;3.70;99.90;;;;;;6223133;23;20103;-81
2022/01/05 03:13:44;;;;;;;0.90;0.90;;;3.70;99.90;;;;;;6246408;23;20123;-86
2022/01/05 03:16:33;;;;;;;1.00;0.90;;;3.70;99.90;;;;;;6201867;23;20090;-82
2022/01/05 03:19:24;;;;;;;0.88;0.88;;;3.60;99.90;;;;;;6204491;23;20467;-84
2022/01/05 03:22:13;;;;;;;1.77;0.90;;;3.70;99.90;;;;;;6221911;23;20146;-83
2022/01/05 03:25:01;;;;;;;0.73;0.73;;;3.70;99.90;;;;;;6244944;23;20116;-82
2022/01/05 03:27:52;;;;;;;0.95;0.88;;;3.60;99.90;;;;;;6224764;23;20090;-83
2022/01/05 03:30:40;;;;;;;1.08;0.88;;;3.60;99.90;;;;;;6222786;23;20032;-85
2022/01/05 03:33:27;;;;;;;0.90;0.90;;;3.50;99.90;;;;;;6222735;23;20098;-83
2022/01/05 03:36:17;;;;;;;0.80;0.80;;;3.60;99.90;;;;;;6181781;23;20050;-83
2022/01/05 03:39:06;;;;;;;0.80;0.80;;;3.50;99.90;;;;;;6204561;23;20050;-84
2022/01/05 03:41:54;;;;;;;0.90;0.90;;;3.50;99.90;;;;;;6201774;23;20024;-84
2022/01/05 03:44:41;;;;;;;1.05;0.80;;;3.50;99.90;;;;;;6202635;23;20036;-83
2022/01/05 03:47:28;;;;;;;0.80;0.80;;;3.40;99.90;;;;;;6181708;23;20289;-82
2022/01/05 03:50:16;;;;;;;0.98;0.90;;;3.40;99.90;;;;;;6203711;23;20024;-84
2022/01/05 03:53:07;;;;;;;0.80;0.80;;;3.40;99.90;;;;;;6203279;23;20110;-84
2022/01/05 03:55:55;;;;;;;0.90;0.90;;;3.40;99.90;;;;;;6216308;23;20028;-83
2022/01/05 03:58:44;;;;;;;0.98;0.98;;;3.40;99.90;;;;;;6224065;23;20398;-84
2022/01/05 04:01:32;;;;;;;2.72;0.77;;;3.40;99.90;;;;;;6230602;23;20055;-84
2022/01/05 04:04:19;;;;;;;0.80;0.80;;;3.40;99.90;;;;;;6174246;23;20024;-84
2022/01/05 04:07:08;;;;;;;0.77;0.77;;;3.40;99.90;;;;;;6212643;23;20048;-85
2022/01/05 04:09:56;;;;;;;0.80;0.80;;;3.40;99.90;;;;;;6201496;23;20032;-86
2022/01/05 04:12:43;;;;;;;0.68;0.65;;;3.50;99.90;;;;;;6224256;23;20047;-82
2022/01/05 04:15:30;;;;;;;0.70;0.70;;;3.50;99.90;;;;;;6243037;23;20028;-85
2022/01/05 04:18:18;;;;;;;1.15;0.93;;;3.40;99.90;;;;;;6243625;23;20024;-83
2022/01/05 04:21:05;;;;;;;0.70;0.70;;;3.40;99.90;;;;;;6203438;23;20020;-83
2022/01/05 04:23:55;;;;;;;0.70;0.70;;;3.30;99.90;;;;;;6181990;23;20020;-83
2022/01/05 04:26:43;;;;;;;0.75;0.75;;;3.30;99.90;;;;;;6244831;22;20106;-85
2022/01/05 04:29:32;;;;;;;0.80;0.80;;;3.20;99.90;;;;;;6201571;23;20446;-83
2022/01/05 04:32:26;;;;;;;1.63;0.70;;;3.20;99.90;;;;;;6223670;23;20024;-81
2022/01/05 04:35:34;;;;;;;0.70;0.70;;;3.10;99.90;;;;;;6202636;23;20120;-87
2022/01/05 04:38:24;;;;;;;0.70;0.70;;;3.10;99.90;;;;;;6245766;23;20092;-83
2022/01/05 04:41:12;;;;;;;0.73;0.73;;;3.10;99.90;;;;;;6193240;23;20040;-83
2022/01/05 04:43:59;;;;;;;0.60;0.60;;;3.10;99.90;;;;;;6193739;23;20035;-83
2022/01/05 04:46:46;;;;;;;0.73;0.73;;;3.10;99.90;;;;;;6190392;23;20115;-84
2022/01/05 04:49:34;;;;;;;0.70;0.70;;;3.10;99.90;;;;;;6201838;23;20063;-81
2022/01/05 04:52:22;;;;;;;0.65;0.65;;;3.00;99.90;;;;;;6200904;23;20028;-82
2022/01/05 04:55:11;;;;;;;2.45;0.88;;;3.00;99.90;;;;;;6223248;23;20123;-84
2022/01/05 04:57:59;;;;;;;0.90;0.90;;;3.00;99.90;;;;;;6201612;23;20099;-84
2022/01/05 05:00:49;;;;;;;1.00;1.00;;;2.90;99.90;;;;;;6182546;23;20558;-81
2022/01/05 05:03:38;;;;;;;1.48;0.90;;;2.90;99.90;;;;;;6242426;23;20027;-83
2022/01/05 05:06:25;;;;;;;1.45;1.17;;;2.80;99.90;;;;;;6202684;23;20035;-83
2022/01/05 05:09:12;;;;;;;1.40;1.10;;;2.70;99.90;;;;;;6202088;23;20099;-83
2022/01/05 05:12:00;;;;;;;1.00;1.00;;;2.70;99.90;;;;;;6222644;23;20028;-85
2022/01/05 05:14:47;;;;;;;1.25;1.15;;;2.60;99.90;;;;;;6222093;23;20056;-86
2022/01/05 05:17:34;;;;;;;1.25;1.15;;;2.60;99.90;;;;;;6220288;23;20031;-85
2022/01/05 05:20:22;;;;;;;1.50;1.40;;;2.60;99.90;;;;;;6243675;23;20074;-84
2022/01/05 05:23:10;;;;;;;1.50;1.40;;;2.50;99.90;;;;;;6202549;23;20122;-83
2022/01/05 05:25:57;;;;;;;1.35;1.30;;;2.60;99.90;;;;;;6180541;23;20724;-85
2022/01/05 05:28:45;;;;;;;1.33;1.23;;;2.60;99.90;;;;;;6203233;23;20020;-83
2022/01/05 05:31:35;;;;;;;1.63;1.48;;;2.60;99.90;;;;;;6222192;23;20487;-81
2022/01/05 05:34:22;;;;;;;1.35;1.25;;;2.70;99.90;;;;;;6222387;23;20028;-84
2022/01/05 05:37:12;;;;;;;2.38;1.85;;;2.70;99.90;;;;;;6221702;23;20035;-83
2022/01/05 05:40:01;;;;;;;2.10;1.90;;;2.80;99.90;;;;;;6224238;23;20036;-83
2022/01/05 05:42:49;;;;;;;2.22;2.00;;;2.90;99.90;;;;;;6202548;23;20375;-83
2022/01/05 05:45:36;;;;;;;2.67;2.22;;;2.90;99.90;;;;;;6221190;23;20024;-82
2022/01/05 06:10:32;;;;;;;3.38;1.70;;;1.30;99.90;;;;;;6107542;23;20117;-83
2022/01/05 06:21:43;;;;;;;3.72;1.63;;;0.90;99.90;;;;;;6011092;23;20078;-81
2022/01/05 06:24:30;;;;;;;4.70;2.17;;;0.90;99.90;;;;;;6175331;23;20075;-79
2022/01/05 06:27:20;;;;;;;2.97;1.77;;;0.90;99.90;;;;;;6193105;23;20625;-80
2022/01/05 06:30:09;;;;;;;3.45;1.77;;;0.90;99.90;;;;;;6172918;23;20123;-81
2022/01/05 06:32:59;;;;;;;4.88;1.90;;;0.90;99.90;;;;;;6210593;23;20047;-79
2022/01/05 06:35:46;;;;;;;2.90;2.13;;;0.90;99.90;;;;;;6159888;23;20020;-83
2022/01/05 06:38:34;;;;;;;2.42;2.20;;;0.90;99.90;;;;;;6191164;23;20037;-84
2022/01/05 06:41:23;;;;;;;2.10;1.95;;;0.90;99.90;;;;;;6211819;23;20486;-83
2022/01/05 06:44:11;;;;;;;3.28;2.35;;;0.90;99.90;;;;;;6211262;23;20367;-82
2022/01/05 06:46:58;;;;;;;3.35;2.10;;;1.00;99.90;;;;;;6190092;23;20099;-85
2022/01/05 06:49:46;;;;;;;2.22;2.03;;;1.00;99.90;;;;;;6170111;23;20420;-82
2022/01/05 06:52:38;;;;;;;5.53;2.38;;;1.10;99.90;;;;;;6191129;23;20396;-81
2022/01/05 06:55:25;;;;;;;3.60;2.20;;;1.10;99.90;;;;;;6212504;23;20079;-84
2022/01/05 06:58:13;;;;;;;3.13;2.30;;;1.10;99.90;;;;;;6150359;23;20725;-84
2022/01/05 07:01:00;;;;;;;2.33;2.10;;;1.20;99.90;;;;;;6169396;23;20024;-82
2022/01/05 07:03:47;;;;;;;4.60;2.20;;;1.20;99.90;;;;;;6190315;23;20107;-81
2022/01/05 07:06:37;;;;;;;3.55;2.33;;;1.20;99.90;;;;;;6190503;23;20037;-81
2022/01/05 07:09:26;;;;;;;5.15;2.67;;;1.20;99.90;;;;;;6211171;23;20093;-80
2022/01/05 07:12:14;;;;;;;4.70;3.20;;;1.30;99.90;;;;;;6190548;23;20024;-82
2022/01/05 07:15:04;;;;;;;5.07;3.17;;;1.30;99.90;;;;;;6192976;23;20356;-81
2022/01/05 07:17:51;;;;;;;4.78;3.65;;;1.30;99.90;;;;;;6191522;23;20028;-83
2022/01/05 07:20:39;;;;;;;5.88;3.70;;;1.30;99.90;;;;;;6188747;23;20040;-86
2022/01/05 07:23:28;;;;;;;3.40;3.10;;;1.30;99.90;;;;;;6170499;23;20445;-84
2022/01/05 07:26:16;;;;;;;5.38;3.30;;;1.40;99.90;;;;;;6191941;23;20025;-83
2022/01/05 07:29:03;;;;;;;4.22;3.83;;;1.30;99.90;;;;;;6191254;23;20028;-84
2022/01/05 07:31:53;;;;;;;5.60;3.92;;;1.40;99.90;;;;;;6168238;23;20068;-85
2022/01/05 07:34:41;;;;;;;6.78;3.95;;;1.40;99.90;;;;;;6171630;23;20024;-84
2022/01/05 07:37:33;;;;;;;6.97;4.13;;;1.30;99.90;;;;;;6193164;23;20455;-86
2022/01/05 07:40:26;;;;;;;4.00;3.45;;;1.30;99.90;;;;;;6193149;23;20104;-85
2022/01/05 07:43:18;;;;;;;5.40;3.30;;;1.30;99.90;;;;;;6214678;23;20083;-83
2022/01/05 07:46:05;;;;;;;5.20;2.70;;;1.20;99.90;;;;;;6175386;23;20033;-83
2022/01/05 07:48:53;;;;;;;2.97;2.50;;;1.10;99.90;;;;;;6197921;23;20127;-82
2022/01/05 07:51:43;;;;;;;4.50;3.08;;;1.10;99.90;;;;;;6215235;23;20025;-82
2022/01/05 07:54:32;;;;;;;6.72;3.03;;;1.00;99.90;;;;;;6172365;23;20020;-83
2022/01/05 07:57:22;;;;;;;5.47;2.70;;;1.00;99.90;;;;;;6174637;23;20021;-82
2022/01/05 08:00:11;;;;;;;5.35;3.35;;;1.00;99.90;;;;;;6175910;23;20048;-81
2022/01/05 08:02:58;;;;;;;11.02;3.58;;;0.90;99.90;;;;;;6217363;22;20032;-84
2022/01/05 08:05:46;;;;;;;4.70;2.90;;;0.90;99.90;;;;;;6246564;23;20106;-82
2022/01/05 08:08:43;;;;;;;5.95;3.20;;;0.90;99.90;;;;;;6201569;23;20035;-84
2022/01/05 08:11:30;;;;;;;9.70;3.75;;;0.80;99.90;;;;;;6230166;23;20052;-82
2022/01/05 08:14:19;;;;;;;5.80;3.45;;;0.80;99.90;;;;;;6203900;23;20126;-83
2022/01/05 08:17:07;;;;;;;8.93;3.78;;;0.80;99.90;;;;;;6244550;23;20051;-83
2022/01/05 08:19:54;;;;;;;5.55;3.35;;;0.80;99.90;;;;;;6201580;23;20032;-82
2022/01/05 08:22:46;;;;;;;10.70;3.80;;;0.80;99.90;;;;;;6201539;23;20035;-82
2022/01/05 08:25:33;;;;;;;7.43;3.50;;;0.80;99.90;;;;;;6223760;23;20024;-83
2022/01/05 08:28:24;;;;;;;11.35;3.50;;;0.90;99.90;;;;;;6245470;23;20024;-82
2022/01/05 08:31:14;;;;;;;10.05;3.33;;;0.90;99.90;;;;;;6222476;23;20113;-83
2022/01/05 08:34:06;;;;;;;8.10;2.97;;;1.00;99.90;;;;;;6226758;22;20043;-81
2022/01/05 08:36:54;;;;;;;5.53;2.75;;;0.90;99.90;;;;;;6220380;23;20024;-85
2022/01/05 08:39:43;;;;;;;5.97;2.72;;;0.90;99.90;;;;;;6200421;23;20032;-81
2022/01/05 08:42:30;;;;;;;8.35;2.83;;;0.90;99.90;;;;;;6182967;23;20028;-81
2022/01/05 08:45:19;;;;;;;6.57;2.63;;;0.80;99.90;;;;;;6222439;23;20103;-82
2022/01/05 08:48:07;;;;;;;6.07;2.90;;;0.90;99.90;;;;;;6225823;23;20027;-83
2022/01/05 08:50:57;;;;;;;8.68;3.75;;;0.90;99.90;;;;;;6225704;22;20031;-83
2022/01/05 08:53:45;;;;;;;6.80;3.08;;;0.80;99.90;;;;;;6222676;23;20028;-82
2022/01/05 08:56:32;;;;;;;7.50;2.28;;;0.80;99.90;;;;;;6202950;23;20024;-83
2022/01/05 08:59:22;;;;;;;4.32;2.70;;;0.80;99.90;;;;;;6202092;23;20043;-84
2022/01/05 09:02:13;;;;;;;10.75;3.60;;;0.80;99.90;;;;;;6201188;23;20056;-86
2022/01/05 09:05:02;;;;;;;8.93;2.97;;;0.90;99.90;;;;;;6217499;22;20035;-84
2022/01/05 09:07:50;;;;;;;7.22;2.60;;;1.00;99.90;;;;;;6213307;23;20099;-82
2022/01/05 09:10:38;;;;;;;6.78;3.22;;;1.20;99.90;;;;;;6200920;23;20021;-84
2022/01/05 09:13:26;;;;;;;7.25;2.72;;;1.30;99.90;;;;;;6212157;23;20020;-83
2022/01/05 09:16:17;;;;;;;4.55;2.47;;;1.30;99.90;;;;;;6169591;23;20021;-83
2022/01/05 09:19:04;;;;;;;7.60;2.58;;;1.30;99.90;;;;;;6192866;23;20055;-84
2022/01/05 09:21:54;;;;;;;8.02;2.90;;;1.40;99.90;;;;;;6191504;23;20028;-83
2022/01/05 09:25:07;;;;;;;6.03;3.00;;;1.60;99.90;;;;;;6192310;23;20375;-82
2022/01/05 09:27:57;;;;;;;6.18;2.70;;;1.80;99.90;;;;;;6213165;22;20077;-82
2022/01/05 09:30:46;;;;;;;10.15;2.88;;;2.10;99.90;;;;;;6212831;23;20056;-84
2022/01/05 09:33:33;;;;;;;9.98;2.72;;;2.40;99.90;;;;;;6210937;23;20028;-87
2022/01/05 09:36:31;;;;;;;5.00;2.38;;;2.50;99.90;;;;;;6169863;23;20020;-86
2022/01/05 09:42:26;;;;;;;4.15;1.88;;;4.00;99.90;;;;;;6212686;23;20028;-82
2022/01/05 09:45:14;;;;;;;5.28;1.90;;;5.20;99.90;;;;;;6211390;23;20040;-85
2022/01/05 09:48:29;;;;;;;4.90;1.90;;;5.70;99.90;;;;;;6189605;23;20032;-87
2022/01/05 09:51:23;;;;;;;6.20;2.00;;;6.40;95.90;;;;;;6193386;23;20029;-83
2022/01/05 09:54:12;;;;;;;4.53;1.83;;;5.70;95.50;;;;;;6192262;23;20032;-84
2022/01/05 09:57:19;;;;;;;10.27;2.20;;;5.00;96.90;;;;;;6214046;23;20054;-85
2022/01/05 10:00:11;;;;;;;7.00;2.03;;;5.00;97.90;;;;;;6192122;23;20029;-85
2022/01/05 10:03:07;;;;;;;7.93;2.35;;;4.60;96.10;;;;;;6214006;23;20060;-86
2022/01/05 10:06:03;;;;;;;9.82;2.05;;;3.80;97.10;;;;;;6223356;23;20797;-84
2022/01/05 10:08:58;;;;;;;15.98;2.83;;;3.60;99.90;;;;;;6241023;23;20024;-85
2022/01/05 10:11:51;;;;;;;13.15;2.50;;;3.50;99.90;;;;;;6241475;23;20030;-84
2022/01/05 10:14:47;;;;;;;11.77;2.67;;;3.40;99.90;;;;;;6204242;23;20310;-84
2022/01/05 10:17:40;;;;;;;9.73;2.50;;;3.30;99.90;;;;;;6242784;23;20035;-85
2022/01/05 10:20:27;;;;;;;8.27;2.67;;;2.70;99.90;;;;;;6202220;23;20024;-86
2022/01/05 10:23:36;;;;;;;11.23;2.17;;;2.40;99.90;;;;;;6199697;23;20106;-87
2022/01/05 10:26:40;;;;;;;19.42;3.33;;;2.10;99.90;;;;;;6224432;23;20396;-85
2022/01/05 10:29:27;;;;;;;12.40;2.90;;;1.90;99.90;;;;;;6221183;23;20020;-86
2022/01/05 10:32:18;;;;;;;8.75;2.92;;;1.80;99.90;;;;;;6201187;23;20071;-84
2022/01/05 10:35:05;;;;;;;10.32;2.67;;;2.10;99.90;;;;;;6220468;23;20058;-84
2022/01/05 10:38:04;;;;;;;10.88;3.15;;;3.40;99.90;;;;;;6218588;23;20043;-85
2022/01/05 10:40:51;;;;;;;11.20;3.33;;;3.60;99.90;;;;;;6223814;22;20408;-84
2022/01/05 10:44:14;;;;;;;14.68;3.00;;;4.00;98.50;;;;;;6222587;23;20058;-83
2022/01/05 10:47:05;;;;;;;13.20;3.25;;;4.50;97.60;;;;;;6241612;23;20039;-84
2022/01/05 10:49:54;;;;;;;8.52;2.53;;;5.70;94.60;;;;;;6223193;22;20127;-85
2022/01/05 10:52:53;;;;;;;12.27;2.85;;;5.50;91.50;;;;;;6221462;23;20385;-84
2022/01/05 10:55:45;;;;;;;8.75;2.58;;;4.60;92.30;;;;;;6221824;23;20024;-84
2022/01/05 10:58:50;;;;;;;11.45;3.03;;;4.60;91.60;;;;;;6242368;23;20109;-83
2022/01/05 11:01:40;;;;;;;13.32;3.03;;;5.50;90.00;;;;;;6242084;23;20265;-84
2022/01/05 11:04:28;;;;;;;7.05;2.58;;;6.70;86.30;;;;;;6219466;23;20028;-83
2022/01/05 11:07:20;;;;;;;8.35;2.45;;;7.00;79.70;;;;;;6222218;23;20038;-83
2022/01/05 11:10:14;;;;;;;11.25;2.70;;;7.40;77.10;;;;;;6243697;23;20403;-85
2022/01/05 11:13:01;;;;;;;8.40;2.30;;;7.80;77.20;;;;;;6223141;23;20447;-82
2022/01/05 11:15:58;;;;;;;8.90;2.58;;;7.40;72.80;;;;;;6202586;23;20443;-84
2022/01/05 11:18:48;;;;;;;13.50;2.85;;;6.20;76.00;;;;;;6222649;23;20027;-83
2022/01/05 11:21:38;;;;;;;7.75;2.22;;;6.10;79.40;;;;;;6223171;23;20032;-84
2022/01/05 11:24:38;;;;;;;11.60;2.85;;;6.60;78.60;;;;;;6222045;23;20035;-85
2022/01/05 11:27:28;;;;;;;10.52;2.65;;;6.80;76.50;;;;;;6244194;23;20020;-82
2022/01/05 11:30:15;;;;;;;9.32;2.75;;;7.30;76.70;;;;;;6223527;23;20415;-85
2022/01/05 11:33:04;;;;;;;11.57;2.65;;;7.80;74.10;;;;;;6202975;23;20113;-85
2022/01/05 11:35:52;;;;;;;7.03;2.67;;;7.60;72.80;;;;;;6224131;22;20055;-84
2022/01/05 11:38:39;;;;;;;10.75;2.42;;;6.80;74.20;;;;;;6246063;23;20027;-86
2022/01/05 11:41:28;;;;;;;9.45;2.47;;;5.80;78.10;;;;;;6204516;23;20035;-85
2022/01/05 11:44:18;;;;;;;7.47;2.22;;;5.60;81.30;;;;;;6224471;22;20024;-83
2022/01/05 11:47:25;;;;;;;9.82;2.83;;;5.50;82.20;;;;;;6221862;23;20119;-84
2022/01/05 11:50:14;;;;;;;11.95;2.92;;;5.70;84.30;;;;;;6241970;23;20032;-83
2022/01/05 11:53:07;;;;;;;12.13;2.75;;;6.30;83.40;;;;;;6224515;23;20163;-84
2022/01/05 11:56:04;;;;;;;8.85;2.75;;;7.20;78.90;;;;;;6222364;23;20043;-84
2022/01/05 11:59:02;;;;;;;10.02;2.83;;;8.20;75.40;;;;;;6224144;23;20035;-84
2022/01/05 12:02:14;;;;;;;10.70;3.10;;;8.30;71.00;;;;;;6225555;23;20099;-81
2022/01/05 12:05:02;;;;;;;12.02;2.75;;;7.50;72.30;;;;;;6222606;23;20094;-81
2022/01/05 12:07:55;;;;;;;11.27;3.30;;;7.40;75.00;;;;;;6182463;23;20486;-82
2022/01/05 12:10:54;;;;;;;5.55;2.15;;;6.50;75.70;;;;;;6221257;23;20024;-81
2022/01/05 12:13:43;;;;;;;10.63;2.75;;;5.70;78.70;;;;;;6222053;23;20103;-84
2022/01/05 12:16:58;;;;;;;9.90;3.50;;;6.30;79.80;;;;;;6245505;23;20024;-80
2022/01/05 12:19:45;;;;;;;;;;;7.50;75.40;;;;;;6223240;23;20028;-80
2022/01/05 12:22:33;;;;;;;9.02;2.30;;;8.20;71.50;;;;;;6224576;22;19915;-81
2022/01/05 12:25:20;;;;;;;9.80;2.63;;;9.10;68.60;;;;;;6221741;23;20127;-84
2022/01/05 12:28:30;;;;;;;9.38;2.13;;;9.40;66.00;;;;;;6229730;23;20028;-83
2022/01/05 12:31:18;;;;;;;6.68;2.10;;;9.10;63.10;;;;;;6243323;23;20323;-81
2022/01/05 12:34:08;;;;;;;9.38;2.30;;;9.30;64.00;;;;;;6247546;23;20020;-83
2022/01/05 12:37:33;;;;;;;8.45;2.17;;;10.00;61.10;;;;;;6207857;23;20285;-84
2022/01/05 12:40:29;;;;;;;6.38;2.13;;;9.80;59.00;;;;;;6210414;23;20775;-82
2022/01/05 12:43:28;;;;;;;9.30;2.05;;;9.00;62.80;;;;;;6223272;23;20039;-84
2022/01/05 12:47:33;;;;;;;10.23;2.35;;;9.20;62.60;;;;;;6243320;23;20502;-84
2022/01/05 12:50:39;;;;;;;7.43;1.98;;;9.40;62.30;;;;;;6212208;23;20423;-83
2022/01/05 12:54:08;;;;;;;6.50;2.17;;;10.20;59.30;;;;;;6191041;23;20024;-84
2022/01/05 12:56:59;;;;;;;7.72;2.42;;;10.20;59.90;;;;;;6221420;23;20028;-83
2022/01/05 12:59:51;;;;;;;8.40;2.22;;;9.60;60.40;;;;;;6224141;23;20036;-83
2022/01/05 13:02:40;;;;;;;11.27;2.38;;;9.00;61.50;;;;;;6224013;23;20305;-83
2022/01/05 13:05:30;;;;;;;5.80;1.85;;;8.20;64.80;;;;;;6225570;22;20333;-83
2022/01/05 13:08:21;;;;;;;12.10;2.65;;;7.80;66.00;;;;;;6184709;23;20052;-83
2022/01/05 13:11:09;;;;;;;7.32;2.72;;;7.20;67.60;;;;;;6223355;23;20024;-83
2022/01/05 13:14:22;;;;;;;7.80;2.60;;;6.20;71.10;;;;;;6227011;23;20024;-86
2022/01/05 13:17:13;;;;;;;10.18;2.70;;;5.70;72.50;;;;;;6227429;23;20091;-83
2022/01/05 13:20:08;;;;;;;10.57;2.50;;;5.10;76.10;;;;;;6246463;22;20076;-81
2022/01/05 13:22:59;;;;;;;8.57;2.40;;;5.50;75.70;;;;;;6223083;23;20330;-82
2022/01/05 13:25:46;;;;;;;7.72;2.50;;;6.30;74.10;;;;;;6182034;23;20028;-82
2022/01/05 13:28:38;;;;;;;11.45;2.38;;;7.10;71.40;;;;;;6245454;23;20051;-82
2022/01/05 13:31:28;;;;;;;5.78;2.33;;;7.30;69.00;;;;;;6244544;23;20024;-83
2022/01/05 13:34:20;;;;;;;10.52;3.13;;;6.20;70.00;;;;;;6200938;23;20424;-81
2022/01/05 13:37:12;;;;;;;7.00;3.23;;;5.20;73.60;;;;;;6200913;23;20082;-83
2022/01/05 13:40:10;;;;;;;7.30;2.30;;;5.00;75.80;;;;;;6204672;23;20035;-83
2022/01/05 13:43:04;;;;;;;12.80;2.42;;;5.60;76.40;;;;;;6202634;23;20042;-82
2022/01/05 13:45:52;;;;;;;7.05;2.90;;;6.00;74.10;;;;;;6222022;23;20038;-82
2022/01/05 13:48:42;;;;;;;10.65;3.00;;;6.40;74.00;;;;;;6201385;23;20024;-85
2022/01/05 13:51:29;;;;;;;11.30;3.00;;;6.30;72.50;;;;;;6222086;23;20078;-81
2022/01/05 13:54:21;;;;;;;9.93;2.35;;;4.80;77.20;;;;;;6224698;23;20020;-81
2022/01/05 13:57:30;;;;;;;13.27;2.47;;;3.80;82.20;;;;;;6245755;22;20031;-81
2022/01/05 14:00:18;;;;;;;10.45;2.55;;;3.70;84.40;;;;;;6223483;23;20032;-83
2022/01/05 14:03:07;;;;;;;7.72;2.63;;;3.40;83.60;;;;;;6204221;22;20024;-82
2022/01/05 14:05:55;;;;;;;9.77;2.92;;;3.30;86.00;;;;;;6202447;23;20035;-81
2022/01/05 14:08:50;;;;;;;10.15;2.83;;;3.60;84.90;;;;;;6244813;23;20032;-81
2022/01/05 14:11:37;;;;;;;9.45;3.15;;;3.30;85.80;;;;;;6243356;23;20131;-82
2022/01/05 14:14:25;;;;;;;12.90;2.90;;;3.40;87.50;;;;;;6223081;23;20074;-84
2022/01/05 14:17:15;;;;;;;10.48;2.63;;;3.40;87.60;;;;;;6220987;23;20027;-85
2022/01/05 14:20:13;;;;;;;9.73;2.60;;;3.20;88.20;;;;;;6203022;23;20032;-82
2022/01/05 14:23:09;;;;;;;8.07;2.33;;;2.90;90.00;;;;;;6221497;23;20111;-82
2022/01/05 14:26:02;;;;;;;11.93;2.60;;;2.70;90.60;;;;;;6222903;22;20359;-81
2022/01/05 14:28:51;;;;;;;6.47;2.53;;;2.50;91.60;;;;;;6241708;23;20356;-82
2022/01/05 14:32:06;;;;;;;8.68;3.10;;;2.50;92.70;;;;;;6225796;23;20024;-81
2022/01/05 14:34:54;;;;;;;7.82;2.72;;;2.50;92.80;;;;;;6220687;23;20039;-82
2022/01/05 14:37:59;;;;;;;13.25;2.85;;;2.50;92.80;;;;;;6221747;23;20028;-85
2022/01/05 14:40:48;;;;;;;9.65;2.80;;;2.40;93.30;;;;;;6243801;23;20114;-82
2022/01/05 14:43:36;;;;;;;7.35;2.92;;;2.30;94.00;;;;;;6222251;23;20284;-83
2022/01/05 14:46:23;;;;;;;8.48;2.78;;;2.10;95.30;;;;;;6222347;23;20058;-84
2022/01/05 14:49:16;;;;;;;7.57;2.63;;;2.00;97.00;;;;;;6221239;23;20020;-82
2022/01/05 14:52:05;;;;;;;;;;;1.80;98.30;;;;;;6242514;23;20028;-82
2022/01/05 14:54:53;;;;;;;9.30;2.38;;;1.70;99.70;;;;;;6220344;23;19920;-82
2022/01/05 14:57:41;;;;;;;7.05;2.70;;;1.60;99.90;;;;;;6200029;23;20031;-82
2022/01/05 15:00:29;;;;;;;8.55;2.95;;;1.60;99.90;;;;;;6242314;23;20036;-81
2022/01/05 15:03:16;;;;;;;9.48;3.00;;;1.50;99.90;;;;;;6198717;23;20089;-84
2022/01/05 15:06:06;;;;;;;9.43;2.78;;;1.50;99.90;;;;;;6224167;23;20096;-82
2022/01/05 15:08:54;;;;;;;6.18;2.35;;;1.60;99.90;;;;;;6220736;23;20043;-83
2022/01/05 15:11:42;;;;;;;7.88;2.30;;;1.80;99.90;;;;;;6242845;23;20024;-81
2022/01/05 15:14:30;;;;;;;11.68;2.72;;;1.80;99.90;;;;;;6220608;23;20024;-82
2022/01/05 15:17:19;;;;;;;16.20;3.08;;;1.70;99.90;;;;;;6220491;23;20024;-85
2022/01/05 15:20:08;;;;;;;10.93;2.53;;;1.60;99.90;;;;;;6242203;23;20028;-84
2022/01/05 15:22:57;;;;;;;6.65;2.50;;;1.50;99.90;;;;;;6222702;23;20035;-84
2022/01/05 15:25:45;;;;;;;19.52;3.08;;;1.40;99.90;;;;;;6200593;23;20026;-80
2022/01/05 15:28:34;;;;;;;8.88;3.22;;;1.30;99.90;;;;;;6245692;22;20107;-83
2022/01/05 15:31:22;;;;;;;9.55;3.25;;;1.10;99.90;;;;;;6221872;23;20042;-82